createdAt,value
2018-03-31T00:01:39.993Z,8.53
2018-03-31T00:04:06.646Z,8.43
2018-03-31T00:06:36.969Z,8.42
2018-03-31T00:09:03.550Z,8.55
2018-03-31T00:11:30.310Z,8.20
2018-03-31T00:13:56.952Z,8.33
2018-03-31T00:16:27.427Z,8.38
2018-03-31T00:18:54.036Z,8.24
2018-03-31T00:21:20.699Z,8.37
2018-03-31T00:23:47.335Z,8.14
2018-03-31T00:26:14.133Z,8.09
2018-03-31T00:28:40.859Z,8.09
2018-03-31T00:31:07.496Z,8.66
2018-03-31T00:33:34.094Z,8.50
2018-03-31T00:36:01.902Z,8.69
2018-03-31T00:38:28.609Z,8.82
2018-03-31T00:40:55.165Z,9.08
2018-03-31T00:43:21.864Z,9.14
2018-03-31T00:45:50.232Z,9.31
2018-03-31T00:48:16.877Z,9.15
2018-03-31T00:50:43.538Z,8.94
2018-03-31T00:53:10.111Z,8.98
2018-03-31T00:55:51.418Z,9.00
2018-03-31T00:58:18.111Z,8.66
2018-03-31T01:00:44.834Z,8.28
2018-03-31T01:03:11.395Z,8.44
2018-03-31T01:05:39.061Z,8.27
2018-03-31T01:08:05.669Z,8.10
2018-03-31T01:10:32.327Z,8.27
2018-03-31T01:12:59.641Z,8.38
2018-03-31T01:15:27.427Z,8.73
2018-03-31T01:17:54.070Z,8.37
2018-03-31T01:20:20.706Z,8.33
2018-03-31T01:22:47.307Z,8.44
2018-03-31T01:25:20.934Z,8.69
2018-03-31T01:27:47.533Z,8.83
2018-03-31T01:30:14.136Z,8.63
2018-03-31T01:32:40.869Z,8.75
2018-03-31T01:35:08.561Z,8.29
2018-03-31T01:37:35.257Z,8.24
2018-03-31T01:40:01.922Z,8.25
2018-03-31T01:42:28.541Z,8.49
2018-03-31T01:44:58.790Z,8.49
2018-03-31T01:47:25.478Z,8.60
2018-03-31T01:49:52.850Z,8.07
2018-03-31T01:52:19.510Z,8.47
2018-03-31T01:54:46.429Z,8.43
2018-03-31T01:57:13.034Z,8.35
2018-03-31T01:59:39.657Z,8.27
2018-03-31T02:02:06.349Z,8.21
2018-03-31T02:04:34.214Z,8.33
2018-03-31T02:07:00.888Z,8.27
2018-03-31T02:09:27.500Z,8.41
2018-03-31T02:11:54.185Z,8.15
2018-03-31T02:14:21.854Z,8.38
2018-03-31T02:16:48.492Z,8.53
2018-03-31T02:19:15.193Z,8.58
2018-03-31T02:21:41.773Z,8.63
2018-03-31T02:24:08.713Z,8.49
2018-03-31T02:26:35.482Z,8.62
2018-03-31T02:29:02.191Z,8.32
2018-03-31T02:31:28.898Z,8.61
2018-03-31T02:33:55.746Z,8.36
2018-03-31T02:36:22.682Z,8.11
2018-03-31T02:38:49.390Z,8.15
2018-03-31T02:41:15.986Z,7.79
2018-03-31T02:43:42.650Z,8.32
2018-03-31T02:46:10.236Z,8.09
2018-03-31T02:48:36.938Z,8.09
2018-03-31T02:51:03.481Z,8.24
2018-03-31T02:53:30.129Z,8.31
2018-03-31T02:55:57.776Z,8.01
2018-03-31T02:58:24.441Z,7.90
2018-03-31T03:00:51.166Z,8.02
2018-03-31T03:03:17.694Z,8.21
2018-03-31T03:05:47.598Z,7.52
2018-03-31T03:08:14.299Z,7.74
2018-03-31T03:10:40.910Z,7.58
2018-03-31T03:13:07.603Z,7.52
2018-03-31T03:15:34.342Z,7.84
2018-03-31T03:18:00.882Z,7.60
2018-03-31T03:20:27.421Z,7.68
2018-03-31T03:22:53.925Z,7.69
2018-03-31T03:25:21.967Z,7.66
2018-03-31T03:27:48.386Z,7.89
2018-03-31T03:30:14.915Z,7.86
2018-03-31T03:32:41.348Z,7.76
2018-03-31T03:35:07.872Z,7.56
2018-03-31T03:37:34.386Z,7.58
2018-03-31T03:40:01.056Z,7.55
2018-03-31T03:42:27.560Z,7.54
2018-03-31T03:45:08.065Z,7.86
2018-03-31T03:47:34.509Z,7.61
2018-03-31T03:50:01.101Z,7.40
2018-03-31T03:52:27.717Z,7.56
2018-03-31T03:54:54.190Z,7.79
2018-03-31T03:57:21.399Z,8.19
2018-03-31T03:59:47.769Z,7.97
2018-03-31T04:02:14.217Z,7.74
2018-03-31T04:04:48.576Z,7.90
2018-03-31T04:07:15.131Z,7.94
2018-03-31T04:09:41.553Z,7.71
2018-03-31T04:12:07.997Z,7.91
2018-03-31T04:14:40.480Z,7.94
2018-03-31T04:17:07.001Z,7.81
2018-03-31T04:19:33.515Z,8.14
2018-03-31T04:22:00.882Z,7.92
2018-03-31T04:24:30.490Z,8.22
2018-03-31T04:26:56.906Z,8.16
2018-03-31T04:29:23.374Z,8.48
2018-03-31T04:31:49.892Z,8.60
2018-03-31T04:34:16.592Z,8.82
2018-03-31T04:36:43.166Z,9.17
2018-03-31T04:39:09.707Z,9.48
2018-03-31T04:41:36.860Z,9.93
2018-03-31T04:44:06.848Z,9.72
2018-03-31T04:46:33.390Z,9.51
2018-03-31T04:48:59.966Z,10.01
2018-03-31T04:51:26.564Z,10.17
2018-03-31T04:53:57.170Z,10.29
2018-03-31T04:56:23.672Z,10.45
2018-03-31T04:58:50.122Z,10.29
2018-03-31T05:01:17.290Z,10.31
2018-03-31T05:03:44.940Z,10.53
2018-03-31T05:06:12.897Z,10.38
2018-03-31T05:08:39.428Z,10.27
2018-03-31T05:11:06.605Z,10.76
2018-03-31T05:13:33.245Z,10.92
2018-03-31T05:16:00.086Z,10.67
2018-03-31T05:18:26.608Z,11.01
2018-03-31T05:20:53.060Z,10.92
2018-03-31T05:23:19.448Z,10.40
2018-03-31T05:25:46.243Z,10.94
2018-03-31T05:28:12.778Z,11.09
2018-03-31T05:30:39.237Z,11.03
2018-03-31T05:33:05.827Z,11.50
2018-03-31T05:35:35.481Z,11.76
2018-03-31T05:38:01.858Z,11.29
2018-03-31T05:40:28.459Z,11.70
2018-03-31T05:42:54.964Z,11.93
2018-03-31T05:45:25.645Z,11.89
2018-03-31T05:47:52.074Z,12.06
2018-03-31T05:50:18.489Z,12.02
2018-03-31T05:52:44.950Z,12.49
2018-03-31T05:55:12.401Z,12.05
2018-03-31T05:57:38.863Z,12.11
2018-03-31T06:00:05.448Z,12.13
2018-03-31T06:02:31.903Z,12.12
2018-03-31T06:05:01.636Z,11.83
2018-03-31T06:07:28.156Z,11.96
2018-03-31T06:09:54.665Z,11.72
2018-03-31T06:12:21.786Z,12.01
2018-03-31T06:14:48.473Z,12.06
2018-03-31T06:17:15.687Z,12.26
2018-03-31T06:19:42.374Z,12.37
2018-03-31T06:22:08.881Z,12.49
2018-03-31T06:24:39.580Z,12.09
2018-03-31T06:27:06.084Z,12.66
2018-03-31T06:29:32.620Z,13.05
2018-03-31T06:31:59.095Z,12.84
2018-03-31T06:34:26.599Z,13.16
2018-03-31T06:36:53.012Z,12.94
2018-03-31T06:39:19.461Z,13.47
2018-03-31T06:41:45.909Z,13.54
2018-03-31T06:44:13.357Z,13.44
2018-03-31T06:46:39.889Z,13.49
2018-03-31T06:49:06.354Z,13.54
2018-03-31T06:51:32.766Z,13.76
2018-03-31T06:54:02.678Z,14.03
2018-03-31T06:56:29.198Z,13.93
2018-03-31T06:58:55.694Z,14.00
2018-03-31T07:01:22.221Z,14.17
2018-03-31T07:03:52.624Z,14.31
2018-03-31T07:06:19.150Z,14.47
2018-03-31T07:08:45.678Z,14.60
2018-03-31T07:11:12.189Z,14.70
2018-03-31T07:13:41.769Z,14.85
2018-03-31T07:16:08.334Z,14.81
2018-03-31T07:18:34.778Z,15.05
2018-03-31T07:21:01.242Z,15.09
2018-03-31T07:23:27.622Z,14.94
2018-03-31T07:25:54.049Z,15.28
2018-03-31T07:28:20.511Z,15.13
2018-03-31T07:30:46.992Z,14.99
2018-03-31T07:33:13.378Z,15.19
2018-03-31T07:35:39.993Z,15.40
2018-03-31T07:38:07.276Z,15.52
2018-03-31T07:40:33.766Z,15.38
2018-03-31T07:43:00.301Z,15.24
2018-03-31T07:45:30.321Z,15.83
2018-03-31T07:47:56.747Z,15.88
2018-03-31T07:50:23.250Z,15.86
2018-03-31T07:52:49.681Z,16.03
2018-03-31T07:55:19.644Z,16.38
2018-03-31T07:57:46.099Z,16.15
2018-03-31T08:00:12.518Z,16.27
2018-03-31T08:02:39.002Z,16.45
2018-03-31T08:05:05.620Z,16.80
2018-03-31T08:07:32.133Z,16.56
2018-03-31T08:09:58.636Z,16.78
2018-03-31T08:12:25.085Z,16.70
2018-03-31T08:14:51.862Z,16.83
2018-03-31T08:17:18.401Z,16.99
2018-03-31T08:19:44.898Z,16.66
2018-03-31T08:22:11.697Z,16.52
2018-03-31T08:24:44.965Z,17.39
2018-03-31T08:27:11.479Z,17.12
2018-03-31T08:29:37.966Z,17.34
2018-03-31T08:32:04.468Z,17.22
2018-03-31T08:34:35.130Z,17.85
2018-03-31T08:37:01.908Z,17.40
2018-03-31T08:39:28.366Z,18.26
2018-03-31T08:41:55.481Z,17.70
2018-03-31T08:44:23.152Z,18.07
2018-03-31T08:46:50.113Z,18.12
2018-03-31T08:49:17.297Z,18.49
2018-03-31T08:51:44.492Z,17.84
2018-03-31T08:54:14.209Z,18.59
2018-03-31T08:56:41.490Z,19.32
2018-03-31T08:59:07.971Z,19.46
2018-03-31T09:01:34.477Z,19.07
2018-03-31T09:04:04.345Z,19.94
2018-03-31T09:06:30.813Z,19.62
2018-03-31T09:08:57.264Z,19.33
2018-03-31T09:11:23.801Z,19.95
2018-03-31T09:13:54.221Z,20.57
2018-03-31T09:16:20.761Z,20.12
2018-03-31T09:18:47.320Z,19.83
2018-03-31T09:21:14.445Z,20.19
2018-03-31T09:23:42.221Z,20.15
2018-03-31T09:26:08.744Z,19.92
2018-03-31T09:28:35.231Z,20.17
2018-03-31T09:31:01.703Z,20.23
2018-03-31T09:33:28.458Z,19.10
2018-03-31T09:35:55.934Z,20.60
2018-03-31T09:38:22.429Z,20.41
2018-03-31T09:40:48.993Z,20.31
2018-03-31T09:43:23.941Z,20.77
2018-03-31T09:45:51.140Z,20.51
2018-03-31T09:48:17.704Z,20.14
2018-03-31T09:50:44.218Z,20.18
2018-03-31T09:53:11.957Z,20.54
2018-03-31T09:55:38.475Z,20.54
2018-03-31T09:58:04.989Z,21.29
2018-03-31T10:00:35.270Z,20.86
2018-03-31T10:03:01.771Z,21.12
2018-03-31T10:05:28.347Z,20.39
2018-03-31T10:07:54.878Z,20.19
2018-03-31T10:10:22.118Z,21.26
2018-03-31T10:12:48.553Z,21.59
2018-03-31T10:15:16.018Z,21.73
2018-03-31T10:17:43.212Z,21.37
2018-03-31T10:20:09.797Z,21.59
2018-03-31T10:22:36.377Z,21.32
2018-03-31T10:25:06.089Z,21.36
2018-03-31T10:27:32.534Z,21.59
2018-03-31T10:29:58.914Z,21.85
2018-03-31T10:32:25.412Z,21.12
2018-03-31T10:34:52.623Z,20.78
2018-03-31T10:37:19.146Z,20.19
2018-03-31T10:39:45.579Z,20.76
2018-03-31T10:42:12.087Z,20.49
2018-03-31T10:44:39.601Z,20.42
2018-03-31T10:47:06.138Z,20.47
2018-03-31T10:49:32.630Z,19.82
2018-03-31T10:51:59.173Z,19.91
2018-03-31T10:54:25.874Z,20.43
2018-03-31T10:56:52.298Z,20.34
2018-03-31T10:59:18.815Z,20.30
2018-03-31T11:01:45.323Z,19.93
2018-03-31T11:04:11.846Z,19.50
2018-03-31T11:06:38.296Z,19.87
2018-03-31T11:09:05.498Z,19.24
2018-03-31T11:11:32.047Z,19.53
2018-03-31T11:13:59.650Z,19.45
2018-03-31T11:16:26.122Z,19.17
2018-03-31T11:18:52.695Z,19.25
2018-03-31T11:21:19.226Z,19.17
2018-03-31T11:23:45.875Z,19.66
2018-03-31T11:26:12.363Z,19.92
2018-03-31T11:28:38.802Z,20.36
2018-03-31T11:31:05.310Z,20.62
2018-03-31T11:33:32.882Z,20.07
2018-03-31T11:35:59.258Z,21.31
2018-03-31T11:38:25.714Z,21.82
2018-03-31T11:40:52.180Z,21.98
2018-03-31T11:43:18.646Z,22.46
2018-03-31T11:45:45.189Z,21.57
2018-03-31T11:48:11.624Z,21.81
2018-03-31T11:50:42.604Z,22.47
2018-03-31T11:53:16.424Z,21.24
2018-03-31T11:55:45.116Z,21.48
2018-03-31T12:00:51.902Z,22.61
2018-03-31T12:03:23.732Z,21.96
2018-03-31T12:05:53.483Z,22.68
2018-03-31T12:08:22.614Z,22.74
2018-03-31T12:10:50.024Z,22.60
2018-03-31T12:13:20.432Z,22.42
2018-03-31T12:15:46.955Z,21.79
2018-03-31T12:18:13.572Z,21.65
2018-03-31T12:20:40.966Z,22.32
2018-03-31T12:23:07.778Z,22.96
2018-03-31T12:25:34.274Z,22.86
2018-03-31T12:28:00.875Z,22.26
2018-03-31T12:30:27.439Z,22.81
2018-03-31T12:32:53.886Z,21.96
2018-03-31T12:35:20.309Z,21.81
2018-03-31T12:37:46.809Z,22.74
2018-03-31T12:40:13.305Z,23.35
2018-03-31T12:42:40.899Z,22.76
2018-03-31T12:45:07.371Z,21.72
2018-03-31T12:47:33.924Z,21.91
2018-03-31T12:50:00.460Z,23.09
2018-03-31T12:52:26.954Z,22.84
2018-03-31T12:54:53.495Z,23.61
2018-03-31T12:57:19.940Z,23.37
2018-03-31T12:59:46.739Z,22.87
2018-03-31T13:02:13.288Z,23.87
2018-03-31T13:04:39.910Z,23.32
2018-03-31T13:07:06.474Z,23.92
2018-03-31T13:09:33.034Z,23.04
2018-03-31T13:11:59.462Z,22.08
2018-03-31T13:14:28.989Z,22.18
2018-03-31T13:16:55.465Z,22.98
2018-03-31T13:19:21.949Z,23.55
2018-03-31T13:21:48.400Z,23.10
2018-03-31T13:24:18.230Z,23.23
2018-03-31T13:26:44.773Z,23.30
2018-03-31T13:29:11.326Z,23.37
2018-03-31T13:31:38.523Z,22.57
2018-03-31T13:34:05.230Z,22.66
2018-03-31T13:36:31.777Z,23.05
2018-03-31T13:38:58.250Z,22.71
2018-03-31T13:41:24.688Z,22.56
2018-03-31T13:43:54.330Z,22.91
2018-03-31T13:46:20.840Z,23.02
2018-03-31T13:48:47.326Z,22.06
2018-03-31T13:51:13.757Z,21.97
2018-03-31T13:53:41.337Z,21.78
2018-03-31T13:56:07.847Z,21.43
2018-03-31T13:58:34.385Z,21.34
2018-03-31T14:01:00.882Z,20.85
2018-03-31T14:03:27.550Z,20.63
2018-03-31T14:05:54.014Z,20.91
2018-03-31T14:08:20.568Z,20.45
2018-03-31T14:10:47.110Z,20.48
2018-03-31T14:13:23.737Z,20.31
2018-03-31T14:15:50.536Z,20.22
2018-03-31T14:18:17.046Z,20.41
2018-03-31T14:20:44.366Z,20.40
2018-03-31T14:23:11.906Z,20.63
2018-03-31T14:25:38.425Z,20.04
2018-03-31T14:28:04.962Z,20.03
2018-03-31T14:30:31.431Z,19.98
2018-03-31T14:33:01.915Z,19.75
2018-03-31T14:35:28.381Z,19.87
2018-03-31T14:37:54.964Z,19.74
2018-03-31T14:40:21.458Z,19.75
2018-03-31T14:42:48.974Z,19.69
2018-03-31T14:45:15.417Z,19.44
2018-03-31T14:47:41.907Z,19.73
2018-03-31T14:50:08.344Z,20.04
2018-03-31T14:52:38.235Z,20.23
2018-03-31T14:55:05.453Z,21.26
2018-03-31T14:57:31.987Z,20.74
2018-03-31T14:59:58.446Z,21.43
2018-03-31T15:02:32.168Z,22.75
2018-03-31T15:04:58.697Z,22.02
2018-03-31T15:07:25.326Z,20.79
2018-03-31T15:09:51.892Z,20.06
2018-03-31T15:12:19.446Z,20.09
2018-03-31T15:14:45.934Z,20.45
2018-03-31T15:17:12.470Z,20.41
2018-03-31T15:19:38.993Z,20.06
2018-03-31T15:22:05.431Z,21.01
2018-03-31T15:24:31.879Z,22.74
2018-03-31T15:26:58.412Z,22.67
2018-03-31T15:29:25.023Z,22.84
2018-03-31T15:31:53.272Z,21.45
2018-03-31T15:34:20.880Z,21.32
2018-03-31T15:36:47.552Z,21.11
2018-03-31T15:39:14.233Z,21.91
2018-03-31T15:41:40.881Z,21.22
2018-03-31T15:44:07.611Z,19.86
2018-03-31T15:46:34.441Z,19.16
2018-03-31T15:49:01.323Z,19.44
2018-03-31T15:51:28.217Z,19.48
2018-03-31T15:53:54.809Z,19.41
2018-03-31T15:56:21.539Z,19.21
2018-03-31T15:58:48.203Z,18.68
2018-03-31T16:01:14.836Z,18.44
2018-03-31T16:03:46.193Z,18.65
2018-03-31T16:06:12.701Z,18.61
2018-03-31T16:08:39.310Z,17.79
2018-03-31T16:11:05.787Z,17.48
2018-03-31T16:13:33.326Z,17.46
2018-03-31T16:15:59.747Z,17.32
2018-03-31T16:18:26.249Z,16.76
2018-03-31T16:20:52.721Z,16.99
2018-03-31T16:23:23.093Z,16.93
2018-03-31T16:25:49.554Z,16.55
2018-03-31T16:28:16.031Z,17.04
2018-03-31T16:30:42.545Z,16.74
2018-03-31T16:33:09.145Z,17.22
2018-03-31T16:35:35.578Z,17.06
2018-03-31T16:38:02.061Z,16.79
2018-03-31T16:40:28.598Z,16.66
2018-03-31T16:42:56.179Z,16.97
2018-03-31T16:45:22.759Z,16.30
2018-03-31T16:47:49.224Z,16.08
2018-03-31T16:50:15.807Z,16.35
2018-03-31T16:52:42.240Z,16.52
2018-03-31T16:55:08.708Z,16.80
2018-03-31T16:57:35.317Z,16.93
2018-03-31T17:00:01.711Z,16.61
2018-03-31T17:02:31.496Z,16.34
2018-03-31T17:04:57.997Z,16.62
2018-03-31T17:07:24.520Z,16.30
2018-03-31T17:09:51.721Z,16.36
2018-03-31T17:12:18.502Z,16.04
2018-03-31T17:14:45.039Z,16.10
2018-03-31T17:17:11.524Z,16.16
2018-03-31T17:19:38.018Z,16.09
2018-03-31T17:22:08.312Z,16.25
2018-03-31T17:24:35.532Z,16.25
2018-03-31T17:27:02.012Z,16.25
2018-03-31T17:29:28.412Z,16.24
2018-03-31T17:31:58.394Z,15.64
2018-03-31T17:34:24.837Z,15.92
2018-03-31T17:36:51.374Z,16.07
2018-03-31T17:39:17.828Z,15.83
2018-03-31T17:41:45.554Z,16.10
2018-03-31T17:44:12.006Z,15.72
2018-03-31T17:46:39.095Z,15.78
2018-03-31T17:49:05.680Z,16.34
2018-03-31T17:51:32.094Z,16.14
2018-03-31T17:53:58.618Z,16.35
2018-03-31T17:56:25.114Z,16.52
2018-03-31T17:58:53.509Z,16.62
2018-03-31T18:01:20.076Z,16.11
2018-03-31T18:03:50.284Z,16.05
2018-03-31T18:06:16.832Z,16.06
2018-03-31T18:08:43.351Z,16.27
2018-03-31T18:11:09.831Z,16.15
2018-03-31T18:13:37.514Z,16.20
2018-03-31T18:16:03.920Z,16.11
2018-03-31T18:18:30.745Z,16.27
2018-03-31T18:20:57.256Z,16.84
2018-03-31T18:23:27.303Z,16.01
2018-03-31T18:25:53.798Z,15.37
2018-03-31T18:28:20.389Z,15.66
2018-03-31T18:30:46.931Z,16.06
2018-03-31T18:33:17.283Z,16.14
2018-03-31T18:35:43.715Z,16.14
2018-03-31T18:38:10.204Z,15.90
2018-03-31T18:40:36.702Z,16.30
2018-03-31T18:43:03.203Z,15.84
2018-03-31T18:45:29.614Z,15.95
2018-03-31T18:47:56.159Z,15.82
2018-03-31T18:50:22.722Z,15.57
2018-03-31T18:55:30.988Z,15.26
2018-03-31T18:58:00.255Z,15.48
2018-03-31T19:00:26.799Z,15.70
2018-03-31T19:02:53.258Z,15.42
2018-03-31T19:05:19.761Z,15.77
2018-03-31T19:07:47.260Z,15.65
2018-03-31T19:10:14.954Z,14.87
2018-03-31T19:15:20.013Z,15.41
2018-03-31T19:17:46.459Z,15.06
2018-03-31T19:20:16.536Z,15.12
2018-03-31T19:22:47.320Z,14.77
2018-03-31T19:25:20.483Z,14.73
2018-03-31T19:27:55.325Z,14.48
2018-03-31T19:30:34.352Z,14.66
2018-03-31T19:33:27.805Z,14.30
2018-03-31T19:36:07.272Z,13.99
2018-03-31T19:38:34.278Z,13.82
2018-03-31T19:41:01.478Z,13.86
2018-03-31T19:43:28.725Z,13.36
2018-03-31T19:45:55.218Z,13.59
2018-03-31T19:48:21.722Z,13.49
2018-03-31T19:50:48.114Z,13.48
2018-03-31T19:53:15.671Z,13.51
2018-03-31T19:55:42.114Z,13.13
2018-03-31T19:58:09.330Z,13.37
2018-03-31T20:00:35.742Z,13.46
2018-03-31T20:03:07.341Z,13.21
2018-03-31T20:05:33.823Z,13.42
2018-03-31T20:08:01.135Z,13.36
2018-03-31T20:10:27.639Z,13.52
2018-03-31T20:12:55.715Z,13.56
2018-03-31T20:15:22.162Z,13.91
2018-03-31T20:17:48.666Z,13.47
2018-03-31T20:20:15.194Z,13.28
2018-03-31T20:22:44.727Z,13.29
2018-03-31T20:25:11.249Z,13.44
2018-03-31T20:27:37.705Z,13.62
2018-03-31T20:30:04.160Z,14.17
2018-03-31T20:32:30.905Z,13.14
2018-03-31T20:34:57.488Z,13.05
2018-03-31T20:37:24.034Z,13.50
2018-03-31T20:39:50.611Z,12.85
2018-03-31T20:42:18.313Z,13.28
2018-03-31T20:44:44.758Z,13.17
2018-03-31T20:47:11.243Z,13.28
2018-03-31T20:49:37.740Z,13.63
2018-03-31T20:52:04.423Z,13.66
2018-03-31T20:54:30.994Z,14.09
2018-03-31T20:56:57.511Z,13.98
2018-03-31T20:59:23.942Z,13.95
2018-03-31T21:01:54.239Z,13.57
2018-03-31T21:04:20.747Z,13.70
2018-03-31T21:06:47.279Z,13.57
2018-03-31T21:09:13.672Z,12.99
2018-03-31T21:11:40.233Z,13.00
2018-03-31T21:14:06.797Z,13.36
2018-03-31T21:16:33.258Z,13.51
2018-03-31T21:18:59.794Z,13.89
2018-03-31T21:21:26.487Z,13.95
2018-03-31T21:23:52.970Z,14.13
2018-03-31T21:26:19.514Z,14.09
2018-03-31T21:28:46.075Z,14.25
2018-03-31T21:31:12.606Z,14.63
2018-03-31T21:33:40.186Z,14.78
2018-03-31T21:36:06.664Z,14.81
2018-03-31T21:38:33.190Z,14.80
2018-03-31T21:40:59.702Z,14.60
2018-03-31T21:43:31.031Z,14.79
2018-03-31T21:45:57.466Z,14.77
2018-03-31T21:48:23.958Z,14.75
2018-03-31T21:50:50.512Z,14.71
2018-03-31T21:53:22.918Z,14.58
2018-03-31T21:55:49.416Z,14.68
2018-03-31T21:58:15.858Z,14.59
2018-03-31T22:00:42.386Z,14.65
2018-03-31T22:03:12.228Z,14.59
2018-03-31T22:05:39.061Z,14.76
2018-03-31T22:08:05.547Z,14.64
2018-03-31T22:10:31.970Z,14.75
2018-03-31T22:13:07.802Z,14.96
2018-03-31T22:15:40.217Z,15.03
2018-03-31T22:18:06.735Z,14.89
2018-03-31T22:20:33.257Z,15.11
2018-03-31T22:23:03.159Z,15.05
2018-03-31T22:25:29.662Z,15.05
2018-03-31T22:27:56.042Z,15.04
2018-03-31T22:30:22.583Z,15.01
2018-03-31T22:32:50.174Z,14.95
2018-03-31T22:35:17.382Z,14.73
2018-03-31T22:37:43.785Z,14.68
2018-03-31T22:40:10.250Z,14.81
2018-03-31T22:42:40.357Z,14.82
2018-03-31T22:45:06.825Z,14.76
2018-03-31T22:47:33.285Z,14.74
2018-03-31T22:49:59.729Z,14.99
2018-03-31T22:52:33.373Z,15.00
2018-03-31T22:54:59.833Z,14.96
2018-03-31T22:57:26.274Z,15.16
2018-03-31T22:59:52.654Z,15.01
2018-03-31T23:02:19.394Z,15.05
2018-03-31T23:04:45.901Z,15.19
2018-03-31T23:07:13.293Z,15.18
2018-03-31T23:09:39.857Z,15.33
2018-03-31T23:12:07.173Z,15.29
2018-03-31T23:14:33.808Z,15.04
2018-03-31T23:17:00.442Z,15.03
2018-03-31T23:19:27.046Z,15.02
2018-03-31T23:21:53.686Z,14.93
2018-03-31T23:24:20.306Z,14.81
2018-03-31T23:26:46.821Z,14.80
2018-03-31T23:29:13.421Z,14.88
2018-03-31T23:31:43.367Z,14.83
2018-03-31T23:34:10.714Z,14.96
2018-03-31T23:36:37.222Z,14.95
2018-03-31T23:39:03.786Z,15.02
2018-03-31T23:41:30.261Z,15.00
2018-03-31T23:43:56.696Z,14.83
2018-03-31T23:46:23.121Z,14.96
2018-03-31T23:48:49.622Z,14.95
2018-03-31T23:51:19.503Z,14.90
2018-03-31T23:53:46.037Z,15.01
2018-03-31T23:56:12.541Z,14.82
2018-03-31T23:58:38.972Z,14.67
